Time;durP1;ratioP1;P1;durP2;ratioP2;P2;SDS_P1;SDS_P2;PMS_P1;PMS_P2;Temp;Humidity;BMP_temperature;BMP_pressure;BME280_temperature;BME280_humidity;BME280_pressure;Samples;Min_cycle;Max_cycle;Signal;HPM_P1;HPM_P2
2022/12/23 00:00:58;;;;;;;18.30;5.40;;;9.40;99.90;;;;;;5068568;28;20043;-73
2022/12/23 00:03:26;;;;;;;15.63;4.68;;;9.40;99.90;;;;;;5071279;28;20052;-73
2022/12/23 00:05:52;;;;;;;16.20;5.40;;;9.40;99.90;;;;;;5069090;28;20044;-73
2022/12/23 00:08:19;;;;;;;16.00;5.10;;;9.40;99.90;;;;;;5071456;28;20040;-73
2022/12/23 00:10:47;;;;;;;16.45;4.45;;;9.40;99.90;;;;;;5071204;28;20033;-73
2022/12/23 00:16:06;;;;;;;12.07;3.58;;;9.40;99.90;;;;;;5071771;28;20056;-73
2022/12/23 00:18:33;;;;;;;14.05;3.20;;;9.40;99.90;;;;;;5073871;28;20465;-73
2022/12/23 00:21:02;;;;;;;8.73;3.20;;;9.40;99.90;;;;;;5071288;28;20032;-73
2022/12/23 00:23:31;;;;;;;11.65;3.13;;;9.40;99.90;;;;;;5070882;28;20039;-73
2022/12/23 00:25:57;;;;;;;13.18;3.45;;;9.50;99.90;;;;;;5069090;28;20035;-73
2022/12/23 00:28:24;;;;;;;9.05;2.72;;;9.40;99.90;;;;;;5070661;28;20033;-73
2022/12/23 00:30:58;;;;;;;12.40;2.70;;;9.40;99.90;;;;;;5070556;28;20037;-74
2022/12/23 00:33:27;;;;;;;8.20;2.28;;;9.40;99.90;;;;;;5070891;28;20481;-74
2022/12/23 00:35:53;;;;;;;11.43;2.20;;;9.40;99.90;;;;;;5068687;28;20043;-73
2022/12/23 00:42:52;;;;;;;12.52;2.78;;;9.50;99.90;;;;;;5070851;28;20052;-73
2022/12/23 00:44:01;;;;;;;8.75;3.10;;;9.40;99.90;;;;;;5073615;28;20048;-74
2022/12/23 00:46:27;;;;;;;9.32;2.40;;;9.40;99.90;;;;;;5072704;28;20339;-73
2022/12/23 00:51:38;;;;;;;8.00;2.67;;;9.40;99.90;;;;;;5074233;28;20028;-73
2022/12/23 00:54:05;;;;;;;10.57;3.22;;;9.50;99.90;;;;;;5073553;28;20394;-73
2022/12/23 00:56:31;;;;;;;8.80;2.05;;;9.50;99.90;;;;;;5072644;28;20036;-73
2022/12/23 00:58:57;;;;;;;6.68;2.72;;;9.50;99.90;;;;;;5073408;28;20393;-73
2022/12/23 01:06:58;;;;;;;8.20;2.90;;;9.50;99.90;;;;;;5053614;28;20048;-73
2022/12/23 01:09:24;;;;;;;8.70;3.17;;;9.50;99.90;;;;;;5073962;28;20037;-73
2022/12/23 01:11:50;;;;;;;4.25;2.63;;;9.50;99.90;;;;;;5073511;28;20551;-73
2022/12/23 01:14:17;;;;;;;7.43;2.50;;;9.50;99.90;;;;;;5073903;28;20043;-73
2022/12/23 01:16:43;;;;;;;4.57;2.00;;;9.50;99.90;;;;;;5073219;28;20055;-73
2022/12/23 01:19:09;;;;;;;5.63;2.83;;;9.50;99.90;;;;;;5092148;28;20261;-73
2022/12/23 01:21:36;;;;;;;7.30;2.85;;;9.50;99.90;;;;;;5093198;28;20489;-73
2022/12/23 01:24:02;;;;;;;11.68;2.78;;;9.50;99.90;;;;;;5093039;28;20059;-73
2022/12/23 01:26:28;;;;;;;6.00;2.10;;;9.50;99.90;;;;;;5092365;28;20032;-73
2022/12/23 01:28:56;;;;;;;6.88;2.70;;;9.60;99.90;;;;;;5093108;28;20059;-73
2022/12/23 01:31:25;;;;;;;8.05;3.20;;;9.50;99.90;;;;;;5093612;28;20036;-73
2022/12/23 01:33:51;;;;;;;5.57;2.65;;;9.50;99.90;;;;;;5091602;28;20044;-74
2022/12/23 01:36:18;;;;;;;7.47;2.45;;;9.50;99.90;;;;;;5092043;28;20032;-73
2022/12/23 01:38:44;;;;;;;4.88;2.25;;;9.60;99.90;;;;;;5093600;28;20040;-73
2022/12/23 01:45:07;;;;;;;8.05;2.67;;;9.50;99.90;;;;;;5093598;28;20040;-73
2022/12/23 01:48:00;;;;;;;6.03;2.78;;;9.50;99.90;;;;;;5052001;28;20048;-73
2022/12/23 01:50:36;;;;;;;7.50;2.78;;;9.60;99.90;;;;;;5093535;28;20039;-73
2022/12/23 01:53:10;;;;;;;10.85;2.75;;;9.60;99.90;;;;;;5092537;28;20032;-73
2022/12/23 01:55:50;;;;;;;5.90;2.83;;;9.60;99.90;;;;;;5090524;28;20051;-73
2022/12/23 01:58:38;;;;;;;9.07;4.07;;;9.60;99.90;;;;;;5092139;28;20043;-73
2022/12/23 02:03:54;;;;;;;8.77;3.45;;;9.60;99.90;;;;;;5093329;28;20036;-74
2022/12/23 02:09:31;;;;;;;8.90;3.58;;;9.60;99.90;;;;;;5093081;28;20035;-72
2022/12/23 02:12:23;;;;;;;10.93;3.13;;;9.60;99.90;;;;;;5092626;28;20121;-73
2022/12/23 02:18:01;;;;;;;6.13;2.42;;;9.60;99.90;;;;;;5073392;28;20060;-72
2022/12/23 02:21:00;;;;;;;5.82;2.60;;;9.60;99.90;;;;;;5072557;28;20358;-72
2022/12/23 02:24:04;;;;;;;9.43;3.45;;;9.70;99.90;;;;;;5054071;28;20044;-73
2022/12/23 02:26:54;;;;;;;7.40;2.58;;;9.60;99.90;;;;;;5069309;28;20381;-72
2022/12/23 02:29:23;;;;;;;4.80;2.70;;;9.70;99.90;;;;;;5072770;28;20055;-72
2022/12/23 02:32:30;;;;;;;5.68;2.40;;;9.70;99.90;;;;;;5072207;28;20031;-72
2022/12/23 02:35:18;;;;;;;7.05;2.72;;;9.70;99.90;;;;;;4988715;28;20041;-72
2022/12/23 02:38:10;;;;;;;6.15;2.38;;;9.70;99.90;;;;;;5044009;28;20048;-72
2022/12/23 02:41:21;;;;;;;6.72;2.65;;;9.70;99.90;;;;;;5072185;28;20028;-72
2022/12/23 02:44:20;;;;;;;7.63;2.47;;;9.70;99.90;;;;;;5014253;28;20052;-72
2022/12/23 02:46:51;;;;;;;6.40;2.65;;;9.70;99.90;;;;;;5020598;28;20481;-72
2022/12/23 02:49:23;;;;;;;8.77;2.13;;;9.70;99.90;;;;;;5072190;28;20043;-72
2022/12/23 02:51:53;;;;;;;7.53;2.83;;;9.70;99.90;;;;;;5071998;28;20381;-72
2022/12/23 02:54:29;;;;;;;7.68;3.17;;;9.70;99.90;;;;;;5071761;28;20036;-72
2022/12/23 02:56:58;;;;;;;7.95;2.63;;;9.70;99.90;;;;;;5051481;28;20044;-72
2022/12/23 02:59:28;;;;;;;4.85;2.50;;;9.60;99.90;;;;;;5071943;28;20385;-72
2022/12/23 03:01:56;;;;;;;9.10;3.47;;;9.60;99.90;;;;;;5070931;28;20043;-73
2022/12/23 03:04:22;;;;;;;4.50;2.30;;;9.60;99.90;;;;;;5071017;28;20047;-72
2022/12/23 03:06:52;;;;;;;7.55;2.40;;;9.50;99.90;;;;;;5052205;28;20055;-72
2022/12/23 03:09:41;;;;;;;8.05;2.83;;;9.40;99.90;;;;;;5071519;28;20040;-72
2022/12/23 03:12:26;;;;;;;6.13;3.53;;;9.40;99.90;;;;;;5070923;28;20355;-72
2022/12/23 03:15:01;;;;;;;6.68;3.13;;;9.40;99.90;;;;;;5070061;28;20040;-74
2022/12/23 03:17:35;;;;;;;6.65;3.13;;;9.30;99.90;;;;;;5085498;28;20056;-73
2022/12/23 03:20:35;;;;;;;6.72;3.17;;;9.30;99.90;;;;;;5091314;28;20067;-72
2022/12/23 03:23:21;;;;;;;7.57;3.45;;;9.20;99.90;;;;;;5036044;28;20049;-73
2022/12/23 03:26:00;;;;;;;6.05;2.95;;;9.00;99.90;;;;;;5089259;28;20575;-73
2022/12/23 03:28:36;;;;;;;7.70;3.70;;;9.00;99.90;;;;;;5092025;28;20035;-73
2022/12/23 03:31:06;;;;;;;5.95;3.20;;;9.00;99.90;;;;;;5091338;28;20036;-73
2022/12/23 03:33:41;;;;;;;8.13;3.83;;;9.00;99.90;;;;;;5091767;28;20047;-73
2022/12/23 03:36:25;;;;;;;6.03;3.38;;;8.90;99.90;;;;;;5089576;28;20048;-72
2022/12/23 03:38:54;;;;;;;6.95;3.50;;;8.80;99.90;;;;;;5091943;28;20499;-73
2022/12/23 03:41:34;;;;;;;7.55;3.67;;;8.70;99.90;;;;;;5091687;28;20028;-72
2022/12/23 03:44:06;;;;;;;7.95;3.70;;;8.60;99.90;;;;;;5089949;28;20040;-73
2022/12/23 03:46:53;;;;;;;10.95;4.13;;;8.60;99.90;;;;;;5090185;28;20465;-72
2022/12/23 03:49:26;;;;;;;8.50;3.92;;;8.60;99.90;;;;;;5090915;28;20032;-72
2022/12/23 03:51:59;;;;;;;8.85;3.75;;;8.50;99.90;;;;;;5091415;28;20024;-72
2022/12/23 03:54:33;;;;;;;8.52;3.58;;;8.60;99.90;;;;;;5091284;28;20032;-72
2022/12/23 03:57:03;;;;;;;7.25;3.42;;;8.50;99.90;;;;;;5089714;28;20036;-73
2022/12/23 03:59:38;;;;;;;7.72;3.72;;;8.60;99.90;;;;;;5091323;28;20036;-73
2022/12/23 04:02:29;;;;;;;6.93;3.88;;;8.50;99.90;;;;;;5089553;28;20032;-72
2022/12/23 04:05:05;;;;;;;7.57;3.70;;;8.50;99.90;;;;;;5089612;28;20051;-73
2022/12/23 04:07:42;;;;;;;8.63;4.38;;;8.50;99.90;;;;;;5091450;28;20032;-72
2022/12/23 04:10:09;;;;;;;6.97;3.90;;;8.50;99.90;;;;;;5090911;28;20028;-72
2022/12/23 04:12:37;;;;;;;6.55;3.30;;;8.50;99.90;;;;;;5091808;28;20032;-72
2022/12/23 04:15:04;;;;;;;5.40;3.80;;;8.50;99.90;;;;;;5089315;28;20035;-72
2022/12/23 04:17:31;;;;;;;5.57;3.22;;;8.50;99.90;;;;;;5077228;28;20048;-73
2022/12/23 04:19:57;;;;;;;10.32;3.38;;;8.50;99.90;;;;;;5074494;28;20029;-73
2022/12/23 04:22:24;;;;;;;7.88;3.35;;;8.60;99.90;;;;;;5074814;28;20362;-72
2022/12/23 04:24:50;;;;;;;7.20;3.42;;;8.70;99.90;;;;;;5073247;28;20040;-73
2022/12/23 04:27:16;;;;;;;4.50;2.55;;;8.80;99.90;;;;;;5074420;28;20028;-72
2022/12/23 04:29:43;;;;;;;6.75;3.05;;;8.80;99.90;;;;;;5056950;28;20063;-72
2022/12/23 04:32:09;;;;;;;27.98;14.10;;;8.90;99.90;;;;;;5074685;28;20025;-72
2022/12/23 04:34:35;;;;;;;15.35;7.53;;;8.80;99.90;;;;;;5073742;28;20048;-73
2022/12/23 04:37:02;;;;;;;5.82;3.42;;;8.80;99.90;;;;;;5073674;28;20039;-73
2022/12/23 04:39:28;;;;;;;8.63;3.92;;;8.80;99.90;;;;;;5074666;28;20031;-72
2022/12/23 04:41:54;;;;;;;4.78;2.75;;;8.70;99.90;;;;;;5075423;28;20035;-72
2022/12/23 04:44:20;;;;;;;5.05;2.90;;;8.70;99.90;;;;;;5058705;28;20051;-72
2022/12/23 04:46:47;;;;;;;7.40;3.38;;;8.70;99.90;;;;;;5074773;28;20035;-72
2022/12/23 04:49:13;;;;;;;6.70;3.08;;;8.70;99.90;;;;;;5073847;28;20091;-72
2022/12/23 04:51:39;;;;;;;15.52;7.20;;;8.70;99.90;;;;;;5074712;28;20040;-72
2022/12/23 04:54:05;;;;;;;6.82;3.70;;;8.80;99.90;;;;;;5073925;28;20044;-72
2022/12/23 04:56:31;;;;;;;10.35;6.03;;;8.70;99.90;;;;;;5072554;28;20024;-72
2022/12/23 04:59:00;;;;;;;12.15;6.70;;;8.70;99.90;;;;;;5056729;28;20039;-72
2022/12/23 05:01:27;;;;;;;8.13;4.10;;;8.70;99.90;;;;;;5074193;28;20025;-72
2022/12/23 05:03:53;;;;;;;5.50;2.80;;;8.70;99.90;;;;;;5073963;28;20043;-72
2022/12/23 05:06:20;;;;;;;5.53;2.90;;;8.80;99.90;;;;;;5071683;28;20053;-72
2022/12/23 05:08:46;;;;;;;7.93;4.55;;;9.00;99.90;;;;;;5056315;28;20039;-72
2022/12/23 05:11:12;;;;;;;12.45;6.22;;;9.10;99.90;;;;;;5073537;28;20031;-73
2022/12/23 05:13:38;;;;;;;22.75;13.13;;;9.20;99.90;;;;;;5056008;28;20371;-73
2022/12/23 05:16:05;;;;;;;7.32;2.97;;;9.30;99.90;;;;;;5071898;28;20059;-73
2022/12/23 05:18:31;;;;;;;21.42;12.75;;;9.30;99.90;;;;;;5074302;28;20055;-73
2022/12/23 05:20:57;;;;;;;7.70;3.65;;;9.40;99.90;;;;;;5073984;28;20044;-73
2022/12/23 05:23:23;;;;;;;23.38;13.05;;;9.40;99.90;;;;;;5073765;28;20043;-72
2022/12/23 05:25:54;;;;;;;39.25;21.17;;;9.50;99.90;;;;;;5072637;28;20052;-74
2022/12/23 05:28:21;;;;;;;16.02;8.27;;;9.50;99.90;;;;;;5054531;28;20293;-72
2022/12/23 05:30:47;;;;;;;21.38;11.38;;;9.60;99.90;;;;;;5073920;28;20037;-72
2022/12/23 05:33:14;;;;;;;19.88;11.95;;;9.60;99.90;;;;;;5073451;28;20036;-72
2022/12/23 05:35:40;;;;;;;7.95;4.25;;;9.60;99.90;;;;;;5072162;28;20033;-72
2022/12/23 05:38:06;;;;;;;13.77;6.43;;;9.60;99.90;;;;;;5072953;28;20029;-73
2022/12/23 05:40:32;;;;;;;29.55;16.83;;;9.60;99.90;;;;;;5073371;28;20374;-73
2022/12/23 05:42:59;;;;;;;11.70;5.38;;;9.60;99.90;;;;;;5073590;28;20385;-73
2022/12/23 05:45:25;;;;;;;21.67;11.25;;;9.60;99.90;;;;;;5068150;28;20036;-73
2022/12/23 05:47:51;;;;;;;10.43;5.63;;;9.60;99.90;;;;;;5067802;28;20032;-72
2022/12/23 05:50:17;;;;;;;13.68;6.93;;;9.70;99.90;;;;;;5072945;28;20024;-73
2022/12/23 05:52:43;;;;;;;8.45;4.20;;;9.70;99.90;;;;;;5073638;28;20033;-73
2022/12/23 05:55:09;;;;;;;7.13;2.90;;;9.70;99.90;;;;;;5071035;28;20036;-72
2022/12/23 05:57:35;;;;;;;14.50;8.98;;;9.60;99.90;;;;;;5073139;28;20366;-73
2022/12/23 06:00:03;;;;;;;6.95;3.97;;;9.60;99.90;;;;;;5072998;28;20044;-73
2022/12/23 06:02:38;;;;;;;8.45;3.70;;;9.60;99.90;;;;;;5074374;28;20039;-72
2022/12/23 06:05:05;;;;;;;3.22;1.30;;;9.60;99.90;;;;;;5070626;28;20095;-73
2022/12/23 06:07:31;;;;;;;4.38;2.88;;;9.70;99.90;;;;;;5073233;28;20373;-72
2022/12/23 06:09:57;;;;;;;4.90;1.85;;;9.70;99.90;;;;;;5073155;28;20357;-72
2022/12/23 06:12:23;;;;;;;6.40;3.17;;;9.80;99.90;;;;;;5066151;28;20489;-73
2022/12/23 06:14:50;;;;;;;3.70;2.33;;;9.80;99.90;;;;;;5071467;28;20044;-73
2022/12/23 06:17:16;;;;;;;5.05;2.58;;;9.80;99.90;;;;;;5072394;28;20477;-72
2022/12/23 06:19:42;;;;;;;6.20;3.17;;;9.80;99.90;;;;;;5072833;28;20032;-72
2022/12/23 06:22:08;;;;;;;6.20;3.35;;;9.80;99.90;;;;;;5072344;28;20493;-73
2022/12/23 06:24:34;;;;;;;5.45;3.75;;;9.80;99.90;;;;;;5053266;28;20435;-73
2022/12/23 06:27:00;;;;;;;5.40;2.88;;;9.80;99.90;;;;;;5038774;28;20037;-72
2022/12/23 06:29:26;;;;;;;4.88;2.42;;;9.70;99.90;;;;;;5071857;28;20040;-72
2022/12/23 06:31:53;;;;;;;5.82;3.67;;;9.70;99.90;;;;;;5072668;28;20032;-72
2022/12/23 06:34:19;;;;;;;3.40;1.92;;;9.60;99.90;;;;;;5071345;28;20040;-74
2022/12/23 06:36:45;;;;;;;3.40;1.88;;;9.70;99.90;;;;;;5071700;28;20028;-72
2022/12/23 06:39:11;;;;;;;3.95;1.83;;;9.70;99.90;;;;;;5071239;28;20029;-73
2022/12/23 06:41:37;;;;;;;3.95;2.05;;;9.70;99.90;;;;;;5073160;28;20045;-72
2022/12/23 06:44:04;;;;;;;5.22;2.70;;;9.70;99.90;;;;;;5072302;28;20052;-73
2022/12/23 06:46:30;;;;;;;3.67;2.17;;;9.60;99.90;;;;;;5070669;28;20031;-73
2022/12/23 06:48:56;;;;;;;6.28;3.72;;;9.70;99.90;;;;;;5072149;28;20051;-73
2022/12/23 06:51:22;;;;;;;4.32;2.40;;;9.70;99.90;;;;;;5071846;28;20043;-73
2022/12/23 06:53:49;;;;;;;5.78;3.15;;;9.70;99.90;;;;;;5037931;28;20053;-72
2022/12/23 06:56:15;;;;;;;8.65;4.55;;;9.70;99.90;;;;;;5069925;28;20385;-72
2022/12/23 06:58:41;;;;;;;6.55;3.78;;;9.80;99.90;;;;;;5072001;28;20033;-73
2022/12/23 07:01:07;;;;;;;4.78;3.20;;;9.80;99.90;;;;;;5071423;28;20028;-73
2022/12/23 07:03:34;;;;;;;6.22;3.25;;;9.70;99.90;;;;;;5071802;28;20028;-73
2022/12/23 07:06:00;;;;;;;6.65;2.72;;;9.80;99.90;;;;;;5070449;28;20032;-73
2022/12/23 07:08:26;;;;;;;5.45;2.83;;;9.80;99.90;;;;;;5071326;28;20036;-73
2022/12/23 07:11:00;;;;;;;6.20;3.00;;;9.80;99.90;;;;;;5071947;28;20021;-73
2022/12/23 07:13:26;;;;;;;4.15;2.70;;;9.80;99.90;;;;;;5052981;28;20050;-73
2022/12/23 07:15:52;;;;;;;5.50;3.28;;;9.80;99.90;;;;;;5057516;28;20044;-73
2022/12/23 07:18:21;;;;;;;4.55;2.70;;;9.80;99.90;;;;;;5088411;28;20040;-73
2022/12/23 07:20:48;;;;;;;3.95;2.42;;;9.70;99.90;;;;;;5090141;28;20024;-73
2022/12/23 07:23:14;;;;;;;3.95;2.90;;;9.70;99.90;;;;;;5089829;28;20047;-73
2022/12/23 07:25:40;;;;;;;3.58;2.58;;;9.70;99.90;;;;;;5090239;28;20036;-73
2022/12/23 07:28:06;;;;;;;6.78;3.17;;;9.80;99.90;;;;;;5091429;28;20473;-73
2022/12/23 07:30:33;;;;;;;22.55;15.40;;;9.80;99.90;;;;;;5091796;28;20036;-73
2022/12/23 07:32:59;;;;;;;18.35;13.15;;;9.70;99.90;;;;;;5090728;28;20031;-73
2022/12/23 07:35:25;;;;;;;14.98;10.25;;;9.70;99.90;;;;;;5086060;28;20055;-73
2022/12/23 07:37:52;;;;;;;15.57;10.75;;;9.60;99.90;;;;;;5085047;28;20507;-72
2022/12/23 07:40:18;;;;;;;10.32;6.38;;;9.50;99.90;;;;;;5091292;28;20047;-73
2022/12/23 07:42:48;;;;;;;9.15;6.50;;;9.40;99.90;;;;;;5084975;28;20040;-73
2022/12/23 07:45:15;;;;;;;8.68;5.47;;;9.40;99.90;;;;;;5088991;28;20059;-73
2022/12/23 07:47:41;;;;;;;12.57;7.47;;;9.40;99.90;;;;;;5089966;28;20421;-73
2022/12/23 07:50:08;;;;;;;12.65;7.10;;;9.40;99.90;;;;;;5087037;28;20366;-73
2022/12/23 07:52:34;;;;;;;14.27;8.30;;;9.40;99.90;;;;;;5087241;28;20463;-73
2022/12/23 07:55:00;;;;;;;12.93;8.82;;;9.50;99.90;;;;;;5087766;28;20028;-73
2022/12/23 07:57:28;;;;;;;16.63;9.63;;;9.40;99.90;;;;;;5086044;28;20033;-73
2022/12/23 07:59:54;;;;;;;13.80;7.63;;;9.50;99.90;;;;;;5085891;28;20039;-73
2022/12/23 08:02:23;;;;;;;14.07;8.68;;;9.50;99.90;;;;;;5088630;28;20043;-73
2022/12/23 08:04:49;;;;;;;12.02;8.00;;;9.40;99.90;;;;;;5083381;28;20033;-73
2022/12/23 08:07:15;;;;;;;9.48;6.07;;;9.40;99.90;;;;;;5085607;28;20032;-74
2022/12/23 08:09:42;;;;;;;10.85;5.65;;;9.40;99.90;;;;;;5088801;28;20032;-73
2022/12/23 08:12:08;;;;;;;9.50;5.88;;;9.40;99.90;;;;;;5090902;28;20035;-75
2022/12/23 08:14:34;;;;;;;9.40;5.38;;;9.40;99.90;;;;;;5082427;28;20048;-72
2022/12/23 08:17:00;;;;;;;10.60;5.28;;;9.40;99.90;;;;;;5072568;28;20052;-72
2022/12/23 08:19:26;;;;;;;9.68;5.60;;;9.30;99.90;;;;;;5068000;28;20028;-72
2022/12/23 08:21:53;;;;;;;12.63;7.18;;;9.40;99.90;;;;;;5046451;28;20045;-72
2022/12/23 08:24:19;;;;;;;10.15;6.55;;;9.50;99.90;;;;;;5069847;28;20804;-72
2022/12/23 08:26:45;;;;;;;13.05;7.25;;;9.40;99.90;;;;;;5075197;28;20370;-72
2022/12/23 08:29:11;;;;;;;12.65;6.03;;;9.40;99.90;;;;;;5074449;28;20361;-75
2022/12/23 08:31:37;;;;;;;10.98;6.07;;;9.40;99.90;;;;;;5070911;28;20041;-72
2022/12/23 08:34:04;;;;;;;10.90;7.47;;;9.50;99.90;;;;;;5052147;28;20047;-72
2022/12/23 08:36:33;;;;;;;14.80;6.25;;;9.60;99.90;;;;;;5072384;28;20041;-72
2022/12/23 08:39:03;;;;;;;13.52;5.75;;;9.60;99.90;;;;;;5073873;28;20032;-72
2022/12/23 08:41:32;;;;;;;6.80;5.45;;;9.60;99.90;;;;;;5072179;28;20428;-72
2022/12/23 08:43:58;;;;;;;8.38;5.68;;;9.60;99.90;;;;;;5056211;28;20044;-72
2022/12/23 08:46:24;;;;;;;10.07;4.82;;;9.70;99.90;;;;;;5073051;28;20484;-72
2022/12/23 08:48:51;;;;;;;9.30;5.22;;;9.70;99.90;;;;;;5056402;28;20047;-72
2022/12/23 08:51:19;;;;;;;9.52;5.32;;;9.70;99.90;;;;;;5073432;28;20024;-72
2022/12/23 08:53:46;;;;;;;8.68;5.43;;;9.70;99.90;;;;;;5074766;28;20469;-72
2022/12/23 08:56:20;;;;;;;9.27;4.95;;;9.80;99.90;;;;;;5071931;28;20033;-73
2022/12/23 08:58:49;;;;;;;10.07;5.57;;;9.80;99.90;;;;;;5074413;28;20029;-72
2022/12/23 09:01:17;;;;;;;7.80;5.75;;;9.80;99.90;;;;;;5072794;28;20485;-73
2022/12/23 09:03:44;;;;;;;9.68;5.60;;;9.80;99.90;;;;;;5074552;28;20032;-73
2022/12/23 09:06:13;;;;;;;8.38;5.30;;;9.80;99.90;;;;;;5072016;28;20044;-73
2022/12/23 09:08:40;;;;;;;13.43;7.05;;;9.80;99.90;;;;;;5075904;28;20035;-73
2022/12/23 09:11:11;;;;;;;12.63;6.55;;;9.90;99.90;;;;;;5073826;28;20389;-74
2022/12/23 09:13:37;;;;;;;9.40;6.13;;;9.90;99.90;;;;;;5071829;28;20024;-73
2022/12/23 09:16:04;;;;;;;10.43;5.60;;;9.90;99.90;;;;;;5072611;28;20041;-73
2022/12/23 09:18:31;;;;;;;12.05;5.78;;;9.90;99.90;;;;;;5067546;28;20029;-73
2022/12/23 09:20:59;;;;;;;9.73;6.47;;;9.90;99.90;;;;;;5046234;28;20028;-73
2022/12/23 09:23:25;;;;;;;17.40;12.27;;;9.90;99.90;;;;;;5073150;28;20025;-73
2022/12/23 09:25:52;;;;;;;12.27;7.97;;;9.90;99.90;;;;;;5071823;28;20036;-73
2022/12/23 09:28:19;;;;;;;15.93;9.68;;;10.00;99.90;;;;;;5073704;28;20457;-73
2022/12/23 09:30:45;;;;;;;11.45;8.35;;;10.00;99.90;;;;;;5046740;28;20131;-73
2022/12/23 09:33:11;;;;;;;24.67;9.85;;;10.00;99.90;;;;;;5056264;28;20032;-75
2022/12/23 09:35:38;;;;;;;23.08;9.88;;;10.00;99.90;;;;;;5071860;28;20044;-75
2022/12/23 09:38:04;;;;;;;16.75;9.32;;;10.00;99.90;;;;;;5073489;28;20028;-75
2022/12/23 09:40:33;;;;;;;12.15;6.47;;;10.00;99.90;;;;;;5073283;28;20248;-75
2022/12/23 09:43:55;;;;;;;12.07;5.82;;;10.00;99.90;;;;;;5055588;28;20397;-75
2022/12/23 09:46:24;;;;;;;10.77;7.20;;;10.00;99.90;;;;;;5030904;28;20532;-75
2022/12/23 09:49:01;;;;;;;9.60;6.22;;;10.00;99.90;;;;;;5070544;28;20041;-75
2022/12/23 09:51:29;;;;;;;11.63;5.97;;;10.00;99.90;;;;;;5053697;28;20043;-76
2022/12/23 09:54:13;;;;;;;8.15;5.15;;;10.10;99.90;;;;;;5072391;28;20025;-75
2022/12/23 09:57:02;;;;;;;10.52;5.70;;;10.10;99.90;;;;;;5073563;28;20054;-76
2022/12/23 09:59:55;;;;;;;7.65;5.30;;;10.20;99.90;;;;;;5072512;28;20033;-76
2022/12/23 10:02:41;;;;;;;6.97;4.65;;;10.20;99.90;;;;;;5072678;28;20040;-76
2022/12/23 10:05:23;;;;;;;8.77;5.00;;;10.20;99.90;;;;;;5071778;28;20048;-76
2022/12/23 10:08:15;;;;;;;7.75;4.97;;;10.30;99.90;;;;;;5073468;28;20040;-76
2022/12/23 10:10:47;;;;;;;7.32;4.47;;;10.30;99.90;;;;;;5073591;28;20039;-76
2022/12/23 10:13:40;;;;;;;9.68;5.18;;;10.30;99.90;;;;;;5066525;28;20029;-75
2022/12/23 10:16:11;;;;;;;7.50;4.15;;;10.40;99.90;;;;;;5071689;28;20052;-75
2022/12/23 10:18:40;;;;;;;;;;;10.40;99.90;;;;;;5072530;28;20044;-75
2022/12/23 10:21:31;;;;;;;8.45;6.25;;;10.50;99.90;;;;;;5072862;28;19916;-75
2022/12/23 10:23:59;;;;;;;;;;;10.60;99.90;;;;;;5071798;28;20474;-75
2022/12/23 10:26:55;;;;;;;13.43;7.93;;;10.60;99.90;;;;;;5065263;28;19916;-74
2022/12/23 10:29:29;;;;;;;13.93;8.80;;;10.60;99.90;;;;;;5057361;28;20039;-75
2022/12/23 10:32:20;;;;;;;13.30;8.48;;;10.60;99.90;;;;;;5073216;28;20047;-74
2022/12/23 10:35:11;;;;;;;15.05;8.65;;;10.60;99.90;;;;;;5071154;28;20036;-74
2022/12/23 10:38:01;;;;;;;8.73;4.65;;;10.60;99.90;;;;;;5072376;28;20037;-75
2022/12/23 10:41:03;;;;;;;10.70;5.50;;;10.60;99.90;;;;;;5067480;28;20501;-74
2022/12/23 10:43:57;;;;;;;11.43;6.50;;;10.60;99.90;;;;;;5054029;28;20059;-75
2022/12/23 10:47:04;;;;;;;9.13;5.38;;;10.60;99.90;;;;;;5071161;28;20040;-74
2022/12/23 10:49:49;;;;;;;10.57;5.53;;;10.60;99.90;;;;;;5071670;28;20024;-75
2022/12/23 10:52:22;;;;;;;8.45;5.45;;;10.60;99.90;;;;;;5067000;28;20024;-75
2022/12/23 10:54:49;;;;;;;8.10;5.47;;;10.70;99.90;;;;;;5059443;28;20040;-75
2022/12/23 10:57:18;;;;;;;11.20;4.90;;;10.60;99.90;;;;;;5070875;28;20036;-75
2022/12/23 10:59:44;;;;;;;8.05;4.97;;;10.60;99.90;;;;;;5066060;28;20033;-75
2022/12/23 11:02:13;;;;;;;8.88;5.95;;;10.60;99.90;;;;;;5067368;28;20032;-76
2022/12/23 11:04:43;;;;;;;9.45;5.95;;;10.60;99.90;;;;;;5070385;28;20111;-75
2022/12/23 11:07:13;;;;;;;11.85;5.78;;;10.60;99.90;;;;;;5069420;28;20036;-76
2022/12/23 11:09:49;;;;;;;9.18;5.93;;;10.70;99.90;;;;;;5052246;28;20025;-77
2022/12/23 11:12:22;;;;;;;10.32;6.88;;;10.70;99.90;;;;;;5069464;28;20033;-75
2022/12/23 11:14:56;;;;;;;8.65;6.00;;;10.70;99.90;;;;;;5070808;28;20037;-75
2022/12/23 11:17:34;;;;;;;9.90;5.05;;;10.70;99.90;;;;;;5071777;28;20048;-75
2022/12/23 11:20:14;;;;;;;9.00;5.47;;;10.70;99.90;;;;;;5072541;28;20033;-75
2022/12/23 11:22:50;;;;;;;8.05;5.43;;;10.80;99.90;;;;;;5072058;28;20028;-75
2022/12/23 11:25:27;;;;;;;8.10;4.85;;;10.90;99.90;;;;;;5068389;28;20485;-75
2022/12/23 11:27:57;;;;;;;8.18;5.05;;;10.90;99.90;;;;;;5039354;28;20029;-75
2022/12/23 11:30:23;;;;;;;7.05;4.88;;;11.00;99.90;;;;;;5067916;28;20040;-75
2022/12/23 11:32:50;;;;;;;8.32;3.85;;;11.00;99.90;;;;;;5072140;28;20029;-75
2022/12/23 11:35:30;;;;;;;5.25;3.60;;;11.00;99.90;;;;;;5070876;28;20036;-75
2022/12/23 11:38:01;;;;;;;5.53;3.97;;;11.10;99.90;;;;;;5072000;28;20032;-75
2022/12/23 11:40:29;;;;;;;;;;;11.10;99.90;;;;;;5071489;28;20028;-75
2022/12/23 11:42:59;;;;;;;5.78;3.30;;;11.10;99.90;;;;;;5072050;28;19931;-75
2022/12/23 11:45:28;;;;;;;5.97;3.38;;;11.10;99.90;;;;;;5069941;28;20041;-75
2022/12/23 11:47:55;;;;;;;5.18;3.38;;;11.10;99.90;;;;;;5071871;28;20347;-75
2022/12/23 11:50:27;;;;;;;4.95;3.00;;;11.10;99.90;;;;;;5071426;28;20488;-75
2022/12/23 11:53:18;;;;;;;4.82;2.75;;;11.10;99.90;;;;;;5071740;28;20032;-75
2022/12/23 11:55:57;;;;;;;6.22;3.00;;;11.10;99.90;;;;;;5070104;28;20032;-75
2022/12/23 11:58:24;;;;;;;3.45;2.45;;;11.10;99.90;;;;;;5070914;28;20037;-75
2022/12/23 12:00:58;;;;;;;5.10;1.95;;;11.10;99.90;;;;;;5068573;28;20028;-76
2022/12/23 12:03:33;;;;;;;5.25;2.17;;;11.10;99.90;;;;;;5044841;28;20029;-76
2022/12/23 12:06:03;;;;;;;3.35;2.22;;;11.10;99.90;;;;;;5065186;28;20033;-76
2022/12/23 12:08:36;;;;;;;4.60;2.63;;;11.10;99.90;;;;;;5070080;28;20036;-76
2022/12/23 12:11:13;;;;;;;3.78;2.22;;;11.10;99.90;;;;;;5067424;28;20029;-76
2022/12/23 12:13:47;;;;;;;5.28;2.95;;;11.10;99.90;;;;;;5064113;28;20036;-76
2022/12/23 12:16:45;;;;;;;5.22;2.30;;;11.10;99.90;;;;;;5057453;28;20044;-76
2022/12/23 12:19:23;;;;;;;4.88;3.38;;;11.10;99.90;;;;;;5054649;28;20040;-76
2022/12/23 12:21:53;;;;;;;5.72;2.92;;;11.10;99.90;;;;;;5084908;28;20036;-76
2022/12/23 12:24:27;;;;;;;6.03;4.05;;;11.10;99.90;;;;;;5088111;28;20028;-76
2022/12/23 12:26:59;;;;;;;7.65;4.22;;;11.10;99.90;;;;;;5085540;28;20492;-76
2022/12/23 12:29:47;;;;;;;9.73;4.63;;;11.10;99.90;;;;;;5089520;28;20426;-76
2022/12/23 12:32:38;;;;;;;6.75;5.00;;;11.10;99.90;;;;;;5087634;28;20484;-75
2022/12/23 12:35:36;;;;;;;7.82;4.63;;;11.10;99.90;;;;;;5090397;28;20036;-76
2022/12/23 12:38:26;;;;;;;10.15;5.53;;;11.20;99.90;;;;;;5094431;28;20043;-76
2022/12/23 12:41:21;;;;;;;12.73;5.88;;;11.20;99.90;;;;;;5095260;28;20040;-76
2022/12/23 12:43:56;;;;;;;12.63;7.82;;;11.20;99.90;;;;;;5094280;28;20356;-76
2022/12/23 12:46:35;;;;;;;12.32;7.28;;;11.10;99.90;;;;;;5094475;28;20040;-76
2022/12/23 12:49:09;;;;;;;11.20;8.10;;;11.10;99.90;;;;;;5095346;28;20024;-76
2022/12/23 12:51:47;;;;;;;11.77;8.05;;;11.10;99.90;;;;;;5094171;28;20036;-76
2022/12/23 12:54:25;;;;;;;12.65;7.88;;;11.20;99.90;;;;;;5093669;28;20039;-76
2022/12/23 12:56:55;;;;;;;11.73;8.68;;;11.20;99.90;;;;;;5095062;28;20457;-76
2022/12/23 12:59:35;;;;;;;15.10;8.50;;;11.20;99.90;;;;;;5094379;28;20032;-78
2022/12/23 13:02:14;;;;;;;12.38;8.85;;;11.20;99.90;;;;;;5093210;28;20503;-76
2022/12/23 13:05:14;;;;;;;12.43;8.57;;;11.20;99.90;;;;;;5092706;28;20028;-75
2022/12/23 13:08:39;;;;;;;11.85;7.80;;;11.20;99.90;;;;;;5093434;28;20028;-75
2022/12/23 13:11:20;;;;;;;12.93;9.00;;;11.20;99.90;;;;;;5012301;28;20038;-75
2022/12/23 13:14:11;;;;;;;18.00;10.38;;;11.20;99.90;;;;;;5010684;28;20129;-75
2022/12/23 13:16:58;;;;;;;14.55;9.80;;;11.20;99.90;;;;;;5011647;28;20054;-75
2022/12/23 13:19:57;;;;;;;11.95;8.82;;;11.30;99.90;;;;;;5011814;28;20044;-74
2022/12/23 13:22:29;;;;;;;13.30;7.03;;;11.30;99.90;;;;;;5005958;28;20050;-75
2022/12/23 13:25:21;;;;;;;12.40;7.43;;;11.30;99.90;;;;;;5010882;28;20053;-75
2022/12/23 13:28:17;;;;;;;10.57;6.55;;;11.30;99.90;;;;;;5011901;28;20044;-75
2022/12/23 13:30:58;;;;;;;9.63;7.13;;;11.30;99.90;;;;;;5001811;28;20573;-74
2022/12/23 13:34:06;;;;;;;10.75;6.85;;;11.40;99.90;;;;;;5011082;28;20443;-76
2022/12/23 13:36:50;;;;;;;14.82;8.60;;;11.40;99.90;;;;;;4994475;28;20054;-76
2022/12/23 13:39:38;;;;;;;10.80;6.90;;;11.40;99.90;;;;;;4994531;28;20057;-74
2022/12/23 13:42:08;;;;;;;13.55;7.03;;;11.40;99.90;;;;;;5031902;28;20055;-74
2022/12/23 13:44:34;;;;;;;10.57;6.53;;;11.50;99.90;;;;;;5068495;28;20033;-75
2022/12/23 13:47:07;;;;;;;8.98;5.43;;;11.50;99.90;;;;;;5070926;28;20045;-74